GLD434 SBJD-SDCO
Flight info
| Callsign | GLD434 |
|---|---|
| Flight time | 0h 29m |
| Altitude | 5000 |
| Route | REA 231207S0470242W / 232436S0472403W |
| Aircraft | C152/L-SDFGIRY/S |
Departure
| Time | 2026-05-04 00:14 |
|---|---|
| Airport | Comte. Rolim Adolfo Amaro–Jundiaí State Airport (SBJD) |
Arrival
| Time | 2026-05-04 00:43 |
|---|---|
| Airport | Sorocaba Airport (SDCO) |
| Time | Latitude | Longitude | Altitude | Speed | Heading |
|---|---|---|---|---|---|
| 2026-05-04 00:05 | -23.18300 | -46.94149 | 2502 ft | 0 kts | 336° |
| 2026-05-04 00:08 | -23.18298 | -46.94151 | 2507 ft | 3 kts | 332° |
| 2026-05-04 00:08 | -23.18248 | -46.94171 | 2507 ft | 10 kts | 336° |
| 2026-05-04 00:08 | -23.18217 | -46.94217 | 2507 ft | 6 kts | 240° |
| 2026-05-04 00:09 | -23.18248 | -46.94214 | 2508 ft | 4 kts | 157° |
| 2026-05-04 00:09 | -23.18268 | -46.94204 | 2506 ft | 4 kts | 156° |
| 2026-05-04 00:09 | -23.18308 | -46.94185 | 2508 ft | 8 kts | 155° |
| 2026-05-04 00:09 | -23.18371 | -46.94154 | 2508 ft | 11 kts | 150° |
| 2026-05-04 00:10 | -23.18389 | -46.94146 | 2508 ft | 0 kts | 160° |
| 2026-05-04 00:10 | -23.18402 | -46.94141 | 2508 ft | 5 kts | 157° |
| 2026-05-04 00:10 | -23.18457 | -46.94114 | 2508 ft | 12 kts | 159° |
| 2026-05-04 00:10 | -23.18505 | -46.94093 | 2508 ft | 10 kts | 158° |
| 2026-05-04 00:11 | -23.18570 | -46.94064 | 2507 ft | 7 kts | 162° |
| 2026-05-04 00:11 | -23.18608 | -46.94066 | 2507 ft | 1 kts | 200° |
| 2026-05-04 00:12 | -23.18637 | -46.94086 | 2507 ft | 9 kts | 226° |
| 2026-05-04 00:12 | -23.18628 | -46.94140 | 2508 ft | 8 kts | 334° |
| 2026-05-04 00:12 | -23.18593 | -46.94157 | 2509 ft | 22 kts | 337° |
| 2026-05-04 00:13 | -23.18425 | -46.94234 | 2511 ft | 56 kts | 329° |
| 2026-05-04 00:13 | -23.17962 | -46.94464 | 2570 ft | 82 kts | 339° |
| 2026-05-04 00:13 | -23.17439 | -46.94720 | 2743 ft | 82 kts | 337° |
| 2026-05-04 00:13 | -23.16937 | -46.94979 | 2930 ft | 81 kts | 332° |
| 2026-05-04 00:14 | -23.16448 | -46.95300 | 3100 ft | 84 kts | 327° |
| 2026-05-04 00:14 | -23.15956 | -46.95675 | 3245 ft | 90 kts | 318° |
| 2026-05-04 00:14 | -23.15793 | -46.96331 | 3427 ft | 93 kts | 264° |
| 2026-05-04 00:14 | -23.15925 | -46.96983 | 3549 ft | 83 kts | 215° |
| 2026-05-04 00:15 | -23.16370 | -46.97274 | 3676 ft | 75 kts | 190° |
| 2026-05-04 00:15 | -23.16862 | -46.97528 | 3735 ft | 81 kts | 188° |
| 2026-05-04 00:15 | -23.17404 | -46.97808 | 3790 ft | 95 kts | 203° |
| 2026-05-04 00:15 | -23.17843 | -46.98414 | 3798 ft | 112 kts | 235° |
| 2026-05-04 00:16 | -23.18128 | -46.99224 | 3795 ft | 116 kts | 242° |
| 2026-05-04 00:16 | -23.18388 | -47.00066 | 3799 ft | 118 kts | 244° |
| 2026-05-04 00:16 | -23.18620 | -47.00883 | 3932 ft | 108 kts | 245° |
| 2026-05-04 00:16 | -23.18831 | -47.01652 | 4062 ft | 106 kts | 245° |
| 2026-05-04 00:17 | -23.19042 | -47.02419 | 4207 ft | 106 kts | 245° |
| 2026-05-04 00:17 | -23.19263 | -47.03180 | 4314 ft | 105 kts | 245° |
| 2026-05-04 00:17 | -23.19483 | -47.03955 | 4418 ft | 108 kts | 247° |
| 2026-05-04 00:17 | -23.19707 | -47.04748 | 4439 ft | 112 kts | 249° |
| 2026-05-04 00:18 | -23.19937 | -47.05559 | 4468 ft | 113 kts | 247° |
| 2026-05-04 00:18 | -23.20157 | -47.06382 | 4490 ft | 113 kts | 249° |
| 2026-05-04 00:18 | -23.20378 | -47.07182 | 4483 ft | 108 kts | 248° |
| 2026-05-04 00:18 | -23.20584 | -47.07965 | 4494 ft | 108 kts | 248° |
| 2026-05-04 00:19 | -23.20802 | -47.08754 | 4521 ft | 109 kts | 249° |
| 2026-05-04 00:19 | -23.21025 | -47.09546 | 4511 ft | 109 kts | 248° |
| 2026-05-04 00:19 | -23.21244 | -47.10329 | 4500 ft | 108 kts | 249° |
| 2026-05-04 00:19 | -23.21459 | -47.11118 | 4506 ft | 109 kts | 249° |
| 2026-05-04 00:20 | -23.21677 | -47.11914 | 4506 ft | 111 kts | 248° |
| 2026-05-04 00:20 | -23.21889 | -47.12722 | 4492 ft | 108 kts | 249° |
| 2026-05-04 00:20 | -23.22096 | -47.13493 | 4625 ft | 105 kts | 248° |
| 2026-05-04 00:20 | -23.22294 | -47.14241 | 4751 ft | 103 kts | 249° |
| 2026-05-04 00:21 | -23.22487 | -47.14986 | 4850 ft | 99 kts | 248° |
| 2026-05-04 00:21 | -23.22661 | -47.15701 | 4940 ft | 101 kts | 250° |
| 2026-05-04 00:21 | -23.22854 | -47.16466 | 4980 ft | 107 kts | 250° |
| 2026-05-04 00:21 | -23.23070 | -47.17264 | 4995 ft | 112 kts | 249° |
| 2026-05-04 00:22 | -23.23296 | -47.18082 | 5000 ft | 114 kts | 250° |
| 2026-05-04 00:22 | -23.23525 | -47.18904 | 5008 ft | 115 kts | 249° |
| 2026-05-04 00:22 | -23.23735 | -47.19724 | 5008 ft | 116 kts | 251° |
| 2026-05-04 00:22 | -23.23948 | -47.20570 | 4970 ft | 114 kts | 250° |
| 2026-05-04 00:23 | -23.24147 | -47.21394 | 4989 ft | 112 kts | 251° |
| 2026-05-04 00:23 | -23.24340 | -47.22214 | 4986 ft | 111 kts | 252° |
| 2026-05-04 00:23 | -23.24529 | -47.23016 | 4998 ft | 107 kts | 252° |
| 2026-05-04 00:23 | -23.24717 | -47.23786 | 5005 ft | 104 kts | 251° |
| 2026-05-04 00:24 | -23.24900 | -47.24549 | 4989 ft | 101 kts | 252° |
| 2026-05-04 00:24 | -23.25069 | -47.25275 | 5000 ft | 100 kts | 252° |
| 2026-05-04 00:24 | -23.25247 | -47.26014 | 5006 ft | 102 kts | 251° |
| 2026-05-04 00:24 | -23.25425 | -47.26766 | 5004 ft | 102 kts | 251° |
| 2026-05-04 00:25 | -23.25592 | -47.27520 | 5003 ft | 103 kts | 250° |
| 2026-05-04 00:25 | -23.25768 | -47.28272 | 4990 ft | 102 kts | 250° |
| 2026-05-04 00:25 | -23.25938 | -47.29014 | 5005 ft | 102 kts | 258° |
| 2026-05-04 00:25 | -23.25819 | -47.29784 | 4996 ft | 103 kts | 283° |
| 2026-05-04 00:26 | -23.25633 | -47.30536 | 4995 ft | 103 kts | 284° |
| 2026-05-04 00:26 | -23.25441 | -47.31290 | 5015 ft | 104 kts | 285° |
| 2026-05-04 00:26 | -23.25246 | -47.32062 | 5023 ft | 107 kts | 285° |
| 2026-05-04 00:26 | -23.25036 | -47.32853 | 5019 ft | 110 kts | 285° |
| 2026-05-04 00:27 | -23.24815 | -47.33657 | 5020 ft | 111 kts | 285° |
| 2026-05-04 00:27 | -23.24605 | -47.34474 | 5028 ft | 113 kts | 285° |
| 2026-05-04 00:27 | -23.24392 | -47.35289 | 5018 ft | 115 kts | 284° |
| 2026-05-04 00:27 | -23.24165 | -47.36122 | 4989 ft | 112 kts | 285° |
| 2026-05-04 00:28 | -23.23943 | -47.36919 | 4993 ft | 107 kts | 285° |
| 2026-05-04 00:28 | -23.23732 | -47.37703 | 5033 ft | 108 kts | 285° |
| 2026-05-04 00:28 | -23.23520 | -47.38477 | 5010 ft | 108 kts | 285° |
| 2026-05-04 00:28 | -23.23309 | -47.39263 | 5026 ft | 108 kts | 284° |
| 2026-05-04 00:29 | -23.23099 | -47.40045 | 5016 ft | 108 kts | 284° |
| 2026-05-04 00:29 | -23.22873 | -47.40840 | 5081 ft | 112 kts | 287° |
| 2026-05-04 00:29 | -23.22653 | -47.41660 | 5052 ft | 111 kts | 278° |
| 2026-05-04 00:29 | -23.22814 | -47.42440 | 5079 ft | 106 kts | 224° |
| 2026-05-04 00:30 | -23.23452 | -47.42671 | 5061 ft | 96 kts | 174° |
| 2026-05-04 00:30 | -23.24118 | -47.42627 | 5074 ft | 96 kts | 169° |
| 2026-05-04 00:30 | -23.24788 | -47.42556 | 5065 ft | 96 kts | 174° |
| 2026-05-04 00:30 | -23.25441 | -47.42599 | 5062 ft | 96 kts | 181° |
| 2026-05-04 00:31 | -23.26111 | -47.42699 | 5073 ft | 97 kts | 184° |
| 2026-05-04 00:31 | -23.26773 | -47.42812 | 5047 ft | 92 kts | 184° |
| 2026-05-04 00:31 | -23.27387 | -47.42914 | 4962 ft | 87 kts | 184° |
| 2026-05-04 00:31 | -23.27990 | -47.43017 | 4865 ft | 90 kts | 185° |
| 2026-05-04 00:32 | -23.28617 | -47.43140 | 4789 ft | 93 kts | 184° |
| 2026-05-04 00:32 | -23.29264 | -47.43258 | 4782 ft | 95 kts | 180° |
| 2026-05-04 00:32 | -23.29910 | -47.43256 | 4721 ft | 92 kts | 171° |
| 2026-05-04 00:32 | -23.30540 | -47.43190 | 4621 ft | 90 kts | 168° |
| 2026-05-04 00:33 | -23.31157 | -47.43124 | 4545 ft | 89 kts | 169° |
| 2026-05-04 00:33 | -23.32375 | -47.42971 | 4420 ft | 88 kts | 168° |
| 2026-05-04 00:33 | -23.32985 | -47.42917 | 4316 ft | 88 kts | 168° |
| 2026-05-04 00:34 | -23.33606 | -47.42865 | 4274 ft | 90 kts | 168° |
| 2026-05-04 00:34 | -23.34222 | -47.42818 | 4156 ft | 87 kts | 168° |
| 2026-05-04 00:34 | -23.34827 | -47.42784 | 4123 ft | 87 kts | 168° |
| 2026-05-04 00:34 | -23.35427 | -47.42743 | 4040 ft | 85 kts | 168° |
| 2026-05-04 00:35 | -23.36006 | -47.42711 | 3895 ft | 81 kts | 168° |
| 2026-05-04 00:35 | -23.36565 | -47.42698 | 3745 ft | 78 kts | 168° |
| 2026-05-04 00:35 | -23.37102 | -47.42682 | 3598 ft | 76 kts | 167° |
| 2026-05-04 00:35 | -23.37632 | -47.42652 | 3535 ft | 79 kts | 166° |
| 2026-05-04 00:36 | -23.38191 | -47.42617 | 3442 ft | 81 kts | 166° |
| 2026-05-04 00:36 | -23.38753 | -47.42556 | 3400 ft | 83 kts | 162° |
| 2026-05-04 00:36 | -23.39321 | -47.42457 | 3335 ft | 82 kts | 161° |
| 2026-05-04 00:36 | -23.39866 | -47.42333 | 3198 ft | 77 kts | 160° |
| 2026-05-04 00:37 | -23.40375 | -47.42208 | 3162 ft | 73 kts | 160° |
| 2026-05-04 00:37 | -23.40877 | -47.42090 | 3137 ft | 73 kts | 159° |
| 2026-05-04 00:37 | -23.41389 | -47.42022 | 3125 ft | 75 kts | 168° |
| 2026-05-04 00:37 | -23.41906 | -47.42028 | 3113 ft | 75 kts | 171° |
| 2026-05-04 00:38 | -23.42426 | -47.42060 | 3094 ft | 74 kts | 172° |
| 2026-05-04 00:38 | -23.42933 | -47.42097 | 3091 ft | 72 kts | 173° |
| 2026-05-04 00:38 | -23.43262 | -47.42158 | 3087 ft | 73 kts | 183° |
| 2026-05-04 00:38 | -23.43820 | -47.42609 | 3100 ft | 81 kts | 220° |
| 2026-05-04 00:39 | -23.43936 | -47.43233 | 3083 ft | 90 kts | 267° |
| 2026-05-04 00:39 | -23.43816 | -47.43676 | 3133 ft | 96 kts | 299° |
| 2026-05-04 00:39 | -23.43417 | -47.44285 | 3155 ft | 102 kts | 311° |
| 2026-05-04 00:39 | -23.42942 | -47.44887 | 3169 ft | 108 kts | 312° |
| 2026-05-04 00:40 | -23.42453 | -47.45502 | 3202 ft | 110 kts | 303° |
| 2026-05-04 00:40 | -23.42438 | -47.46280 | 3180 ft | 99 kts | 225° |
| 2026-05-04 00:40 | -23.42943 | -47.46621 | 3175 ft | 85 kts | 198° |
| 2026-05-04 00:40 | -23.43372 | -47.47125 | 3114 ft | 86 kts | 214° |
| 2026-05-04 00:41 | -23.43763 | -47.47612 | 3124 ft | 85 kts | 218° |
| 2026-05-04 00:41 | -23.44097 | -47.48168 | 3141 ft | 88 kts | 232° |
| 2026-05-04 00:41 | -23.44307 | -47.48775 | 3105 ft | 82 kts | 232° |
| 2026-05-04 00:41 | -23.44585 | -47.49320 | 3005 ft | 78 kts | 231° |
| 2026-05-04 00:42 | -23.44957 | -47.49698 | 2902 ft | 72 kts | 181° |
| 2026-05-04 00:42 | -23.45393 | -47.49691 | 2805 ft | 59 kts | 179° |
| 2026-05-04 00:42 | -23.45792 | -47.49688 | 2629 ft | 54 kts | 167° |
| 2026-05-04 00:42 | -23.46164 | -47.49605 | 2401 ft | 55 kts | 161° |
| 2026-05-04 00:43 | -23.46523 | -47.49470 | 2293 ft | 55 kts | 156° |
| 2026-05-04 00:43 | -23.46894 | -47.49333 | 2167 ft | 54 kts | 159° |
| 2026-05-04 00:43 | -23.47212 | -47.49214 | 2046 ft | 39 kts | 157° |
| 2026-05-04 00:43 | -23.47418 | -47.49132 | 2046 ft | 24 kts | 162° |
| 2026-05-04 00:44 | -23.47555 | -47.49089 | 2051 ft | 20 kts | 161° |
| 2026-05-04 00:44 | -23.47678 | -47.49045 | 2053 ft | 16 kts | 161° |
| 2026-05-04 00:44 | -23.47763 | -47.49015 | 2057 ft | 10 kts | 161° |
| 2026-05-04 00:44 | -23.47806 | -47.48977 | 2059 ft | 7 kts | 112° |
| 2026-05-04 00:45 | -23.47813 | -47.48945 | 2059 ft | 0 kts | 94° |
| 2026-05-04 00:45 | -23.47813 | -47.48937 | 2060 ft | 2 kts | 88° |
| 2026-05-04 00:45 | -23.47831 | -47.48897 | 2061 ft | 5 kts | 136° |
| 2026-05-04 00:46 | -23.47858 | -47.48880 | 2062 ft | 4 kts | 160° |
| 2026-05-04 00:46 | -23.47865 | -47.48864 | 2063 ft | 0 kts | 66° |